createdAt,value
2022-08-22T00:00:13.705Z,14.12
2022-08-22T00:02:42.499Z,17.20
2022-08-22T00:05:42.867Z,14.03
2022-08-22T00:08:17.175Z,14.12
2022-08-22T00:10:53.947Z,13.94
2022-08-22T00:13:27.143Z,13.98
2022-08-22T00:16:01.945Z,14.04
2022-08-22T00:18:32.597Z,14.06
2022-08-22T00:21:08.316Z,13.99
2022-08-22T00:23:40.163Z,13.94
2022-08-22T00:26:10.714Z,13.87
2022-08-22T00:28:41.927Z,13.90
2022-08-22T00:31:18.878Z,13.98
2022-08-22T00:33:48.643Z,14.03
2022-08-22T00:36:26.135Z,14.02
2022-08-22T00:39:00.103Z,13.91
2022-08-22T00:41:42.587Z,13.87
2022-08-22T00:44:44.074Z,13.92
2022-08-22T00:47:53.152Z,13.86
2022-08-22T00:50:33.481Z,13.75
2022-08-22T00:53:28.772Z,13.61
2022-08-22T00:56:05.846Z,13.44
2022-08-22T00:59:12.006Z,13.51
2022-08-22T01:01:54.487Z,13.14
2022-08-22T01:04:35.802Z,13.28
2022-08-22T01:07:12.778Z,13.44
2022-08-22T01:09:50.909Z,13.38
2022-08-22T01:12:42.711Z,13.36
2022-08-22T01:15:12.920Z,13.32
2022-08-22T01:18:15.077Z,13.30
2022-08-22T01:21:25.073Z,13.37
2022-08-22T01:24:26.077Z,13.46
2022-08-22T01:27:32.385Z,13.50
2022-08-22T01:30:12.441Z,13.49
2022-08-22T01:33:06.601Z,13.49
2022-08-22T01:36:05.085Z,13.57
2022-08-22T01:38:45.249Z,13.59
2022-08-22T01:41:24.526Z,13.59
2022-08-22T01:44:03.761Z,13.61
2022-08-22T01:46:42.069Z,13.72
2022-08-22T01:49:16.471Z,13.51
2022-08-22T01:51:48.226Z,13.70
2022-08-22T01:54:27.990Z,13.70
2022-08-22T01:57:02.657Z,13.76
2022-08-22T01:59:36.136Z,13.73
2022-08-22T02:02:38.517Z,13.67
2022-08-22T02:05:10.569Z,13.70
2022-08-22T02:07:46.273Z,13.67
2022-08-22T02:10:19.925Z,13.73
2022-08-22T02:12:51.974Z,13.76
2022-08-22T02:15:23.791Z,13.79
2022-08-22T02:18:01.207Z,13.82
2022-08-22T02:20:32.079Z,13.83
2022-08-22T02:23:10.662Z,13.80
2022-08-22T02:25:49.860Z,13.75
2022-08-22T02:28:23.567Z,13.66
2022-08-22T02:30:54.898Z,13.68
2022-08-22T02:33:30.132Z,13.72
2022-08-22T02:36:01.645Z,13.73
2022-08-22T02:38:36.469Z,13.66
2022-08-22T02:41:11.510Z,13.69
2022-08-22T02:43:44.919Z,13.58
2022-08-22T02:46:23.686Z,13.58
2022-08-22T02:48:59.911Z,13.65
2022-08-22T02:51:34.969Z,13.63
2022-08-22T02:54:11.746Z,13.50
2022-08-22T02:56:42.205Z,13.48
2022-08-22T02:59:26.113Z,13.34
2022-08-22T03:01:56.026Z,13.34
2022-08-22T03:04:46.533Z,13.27
2022-08-22T03:07:23.110Z,13.30
2022-08-22T03:09:59.501Z,13.29
2022-08-22T03:12:32.994Z,13.30
2022-08-22T03:15:07.052Z,13.19
2022-08-22T03:17:38.382Z,13.26
2022-08-22T03:20:11.284Z,13.25
2022-08-22T03:22:45.241Z,13.28
2022-08-22T03:25:23.663Z,13.22
2022-08-22T03:27:55.389Z,13.17
2022-08-22T03:30:24.573Z,13.10
2022-08-22T03:32:55.484Z,13.05
2022-08-22T03:35:26.513Z,13.07
2022-08-22T03:37:58.602Z,12.90
2022-08-22T03:40:33.618Z,13.07
2022-08-22T03:43:22.643Z,13.15
2022-08-22T03:46:24.865Z,13.09
2022-08-22T03:49:09.489Z,12.97
2022-08-22T03:51:59.567Z,13.07
2022-08-22T03:54:58.841Z,13.11
2022-08-22T03:57:57.996Z,13.14
2022-08-22T04:00:55.917Z,12.99
2022-08-22T04:03:46.381Z,12.85
2022-08-22T04:06:30.127Z,12.78
2022-08-22T04:09:24.626Z,12.84
2022-08-22T04:12:13.281Z,12.78
2022-08-22T04:14:57.921Z,12.78
2022-08-22T04:17:53.529Z,12.81
2022-08-22T04:20:37.646Z,12.89
2022-08-22T04:23:26.610Z,12.90
2022-08-22T04:25:57.638Z,12.85
2022-08-22T04:28:32.379Z,12.85
2022-08-22T04:31:06.229Z,12.76
2022-08-22T04:33:37.868Z,12.92
2022-08-22T04:36:10.265Z,12.95
2022-08-22T04:38:42.731Z,12.94
2022-08-22T04:41:12.770Z,13.06
2022-08-22T04:43:43.761Z,13.05
2022-08-22T04:46:17.229Z,13.06
2022-08-22T04:48:51.255Z,13.03
2022-08-22T04:51:24.266Z,13.11
2022-08-22T04:54:12.046Z,13.05
2022-08-22T04:56:46.165Z,13.06
2022-08-22T04:59:16.633Z,13.15
2022-08-22T05:01:47.874Z,13.13
2022-08-22T05:04:19.691Z,13.20
2022-08-22T05:06:50.872Z,13.41
2022-08-22T05:09:21.420Z,13.50
2022-08-22T05:11:50.218Z,13.54
2022-08-22T05:14:21.309Z,13.62
2022-08-22T05:16:53.050Z,13.69
2022-08-22T05:19:31.252Z,13.68
2022-08-22T05:22:00.799Z,13.79
2022-08-22T05:24:33.298Z,13.98
2022-08-22T05:27:05.189Z,14.02
2022-08-22T05:29:34.010Z,14.23
2022-08-22T05:32:06.808Z,14.35
2022-08-22T05:34:38.450Z,14.46
2022-08-22T05:37:11.243Z,14.68
2022-08-22T05:39:40.185Z,14.86
2022-08-22T05:42:13.357Z,15.05
2022-08-22T05:44:42.345Z,15.22
2022-08-22T05:47:22.091Z,15.47
2022-08-22T05:49:56.285Z,15.70
2022-08-22T05:52:34.651Z,15.97
2022-08-22T05:55:04.808Z,16.21
2022-08-22T05:57:34.673Z,16.40
2022-08-22T06:00:07.233Z,16.50
2022-08-22T06:02:51.066Z,16.75
2022-08-22T06:05:24.670Z,17.04
2022-08-22T06:07:56.226Z,17.24
2022-08-22T06:10:28.294Z,17.46
2022-08-22T06:13:00.346Z,17.62
2022-08-22T06:15:31.665Z,17.73
2022-08-22T06:18:02.582Z,17.79
2022-08-22T06:20:34.545Z,17.94
2022-08-22T06:23:03.145Z,18.07
2022-08-22T06:25:33.674Z,18.31
2022-08-22T06:28:04.585Z,18.35
2022-08-22T06:30:32.681Z,18.29
2022-08-22T06:33:04.568Z,18.44
2022-08-22T06:35:50.969Z,18.66
2022-08-22T06:38:19.815Z,18.89
2022-08-22T06:40:47.846Z,19.24
2022-08-22T06:43:15.529Z,19.34
2022-08-22T06:45:43.766Z,19.51
2022-08-22T06:48:18.171Z,19.85
2022-08-22T06:50:50.890Z,20.20
2022-08-22T06:53:21.397Z,20.98
2022-08-22T06:55:52.147Z,21.80
2022-08-22T06:58:22.022Z,22.50
2022-08-22T07:01:11.350Z,22.35
2022-08-22T07:03:42.624Z,23.34
2022-08-22T07:06:15.674Z,24.32
2022-08-22T07:08:43.771Z,24.66
2022-08-22T07:11:15.935Z,24.85
2022-08-22T07:13:46.695Z,25.22
2022-08-22T07:16:14.283Z,25.15
2022-08-22T07:18:51.207Z,25.51
2022-08-22T07:21:27.735Z,26.41
2022-08-22T07:23:56.282Z,26.15
2022-08-22T07:26:30.422Z,26.31
2022-08-22T07:29:00.933Z,26.33
2022-08-22T07:31:35.391Z,26.45
2022-08-22T07:34:13.285Z,27.04
2022-08-22T07:36:45.166Z,27.43
2022-08-22T07:39:24.965Z,27.37
2022-08-22T07:42:12.093Z,27.24
2022-08-22T07:44:53.010Z,27.53
2022-08-22T07:47:26.590Z,27.27
2022-08-22T07:49:58.570Z,27.00
2022-08-22T07:52:26.435Z,27.50
2022-08-22T07:54:57.733Z,27.59
2022-08-22T07:57:29.675Z,27.49
2022-08-22T07:59:59.285Z,28.28
2022-08-22T08:02:27.573Z,27.78
2022-08-22T08:05:00.347Z,27.57
2022-08-22T08:07:31.987Z,27.49
2022-08-22T08:10:03.905Z,27.90
2022-08-22T08:12:36.249Z,27.78
2022-08-22T08:15:06.161Z,28.15
2022-08-22T08:17:34.268Z,28.13
2022-08-22T08:20:09.053Z,28.56
2022-08-22T08:22:38.869Z,28.51
2022-08-22T08:25:08.259Z,28.49
2022-08-22T08:27:55.766Z,28.22
2022-08-22T08:30:35.731Z,27.60
2022-08-22T08:33:24.660Z,27.74
2022-08-22T08:36:03.184Z,27.75
2022-08-22T08:38:33.973Z,27.90
2022-08-22T08:41:22.611Z,28.10
2022-08-22T08:43:55.525Z,28.15
2022-08-22T08:46:51.826Z,28.42
2022-08-22T08:49:47.645Z,28.75
2022-08-22T08:52:29.145Z,28.60
2022-08-22T08:55:19.829Z,29.31
2022-08-22T08:58:07.002Z,29.28
2022-08-22T09:00:51.969Z,28.87
2022-08-22T09:03:37.747Z,28.77
2022-08-22T09:06:52.846Z,28.18
2022-08-22T09:09:43.989Z,28.06
2022-08-22T09:12:24.689Z,27.84
2022-08-22T09:15:19.881Z,27.45
2022-08-22T09:18:20.183Z,27.54
2022-08-22T09:21:04.645Z,27.70
2022-08-22T09:23:53.673Z,27.59
2022-08-22T09:26:29.128Z,28.00
2022-08-22T09:28:59.788Z,28.07
2022-08-22T09:31:48.403Z,28.09
2022-08-22T09:34:25.614Z,28.04
2022-08-22T09:37:06.586Z,28.31
2022-08-22T09:39:39.182Z,28.33
2022-08-22T09:42:12.689Z,28.51
2022-08-22T09:44:46.674Z,28.82
2022-08-22T09:47:24.631Z,28.71
2022-08-22T09:49:59.257Z,28.62
2022-08-22T09:52:44.653Z,28.80
2022-08-22T09:55:35.348Z,28.68
2022-08-22T09:58:11.412Z,28.66
2022-08-22T10:00:45.213Z,28.76
2022-08-22T10:03:19.457Z,28.88
2022-08-22T10:05:55.697Z,28.78
2022-08-22T10:08:33.505Z,29.02
2022-08-22T10:11:18.935Z,29.01
2022-08-22T10:13:57.332Z,29.19
2022-08-22T10:16:40.547Z,28.80
2022-08-22T10:19:12.503Z,28.87
2022-08-22T10:22:05.333Z,28.72
2022-08-22T10:24:43.768Z,28.81
2022-08-22T10:27:15.713Z,29.39
2022-08-22T10:29:54.468Z,29.02
2022-08-22T10:32:30.762Z,29.19
2022-08-22T10:35:00.628Z,29.52
2022-08-22T10:37:32.533Z,29.99
2022-08-22T10:40:03.800Z,29.67
2022-08-22T10:42:35.320Z,29.76
2022-08-22T10:45:23.562Z,29.63
2022-08-22T11:03:45.529Z,29.76
2022-08-22T11:06:18.046Z,30.13
2022-08-22T11:09:13.902Z,30.22
2022-08-22T11:11:44.957Z,30.27
2022-08-22T11:14:25.757Z,30.21
2022-08-22T11:17:46.321Z,30.46
2022-08-22T11:20:27.345Z,30.20
2022-08-22T11:23:12.533Z,30.01
2022-08-22T11:25:52.513Z,30.27
2022-08-22T11:28:31.733Z,30.32
2022-08-22T11:31:07.028Z,31.16
2022-08-22T11:33:46.359Z,31.42
2022-08-22T11:36:50.613Z,31.40
2022-08-22T11:45:40.365Z,31.28
2022-08-22T11:48:13.968Z,31.43
2022-08-22T11:50:45.508Z,31.79
2022-08-22T11:53:25.758Z,32.30
2022-08-22T11:56:05.574Z,32.69
2022-08-22T11:58:42.671Z,33.00
2022-08-22T12:01:17.148Z,33.02
2022-08-22T12:04:05.921Z,33.26
2022-08-22T12:06:48.295Z,33.18
2022-08-22T12:09:29.884Z,33.22
2022-08-22T12:12:09.437Z,33.47
2022-08-22T12:14:42.906Z,33.65
2022-08-22T12:17:44.050Z,33.80
2022-08-22T12:20:17.469Z,33.22
2022-08-22T12:22:55.852Z,32.48
2022-08-22T12:25:39.693Z,32.03
2022-08-22T12:28:17.881Z,32.06
2022-08-22T12:30:55.997Z,31.70
2022-08-22T12:33:40.181Z,32.23
2022-08-22T12:36:43.293Z,31.95
2022-08-22T12:39:32.666Z,31.26
2022-08-22T12:42:20.918Z,31.52
2022-08-22T12:45:00.949Z,31.90
2022-08-22T12:47:38.210Z,32.12
2022-08-22T12:50:31.661Z,32.88
2022-08-22T12:53:16.943Z,32.89
2022-08-22T12:56:04.826Z,32.99
2022-08-22T12:58:51.159Z,33.29
2022-08-22T13:01:20.038Z,33.52
2022-08-22T13:03:55.094Z,34.18
2022-08-22T13:06:52.774Z,34.33
2022-08-22T13:09:28.825Z,34.02
2022-08-22T13:12:02.560Z,34.01
2022-08-22T13:14:34.026Z,33.17
2022-08-22T13:17:24.238Z,33.07
2022-08-22T13:20:53.212Z,32.49
2022-08-22T13:23:23.838Z,32.00
2022-08-22T13:26:07.738Z,30.53
2022-08-22T13:28:43.181Z,30.54
2022-08-22T13:31:21.954Z,30.53
2022-08-22T13:33:50.352Z,30.51
2022-08-22T13:36:23.574Z,30.56
2022-08-22T13:38:58.442Z,30.53
2022-08-22T13:41:31.727Z,30.13
2022-08-22T13:44:30.186Z,30.00
2022-08-22T13:47:14.272Z,29.80
2022-08-22T13:49:45.461Z,29.90
2022-08-22T13:52:29.778Z,30.12
2022-08-22T13:55:03.522Z,30.17
2022-08-22T13:57:43.654Z,30.55
2022-08-22T14:00:56.636Z,30.96
2022-08-22T14:03:33.585Z,31.23
2022-08-22T14:06:32.894Z,31.46
2022-08-22T14:08:53.362Z,31.47
2022-08-22T14:11:27.338Z,31.13
2022-08-22T14:13:59.190Z,31.21
2022-08-22T14:16:29.356Z,30.91
2022-08-22T14:18:59.315Z,30.81
2022-08-22T14:21:41.494Z,30.66
2022-08-22T14:24:20.692Z,30.87
2022-08-22T14:26:58.497Z,30.86
2022-08-22T14:29:40.492Z,31.02
2022-08-22T14:32:14.904Z,31.21
2022-08-22T14:34:47.577Z,30.90
2022-08-22T14:37:19.383Z,30.96
2022-08-22T14:39:54.461Z,30.90
2022-08-22T14:42:47.121Z,31.00
2022-08-22T14:45:18.950Z,31.33
2022-08-22T14:48:45.993Z,31.15
2022-08-22T14:51:22.444Z,31.00
2022-08-22T14:54:04.736Z,30.61
2022-08-22T14:56:34.676Z,30.69
2022-08-22T14:59:10.160Z,31.06
2022-08-22T15:02:03.653Z,31.91
2022-08-22T15:04:36.731Z,32.13
2022-08-22T15:07:05.741Z,31.88
2022-08-22T15:09:44.698Z,31.57
2022-08-22T15:12:25.595Z,31.51
2022-08-22T15:14:58.452Z,31.16
2022-08-22T15:17:36.578Z,31.15
2022-08-22T15:20:27.725Z,31.46
2022-08-22T15:22:57.153Z,31.23
2022-08-22T15:25:29.781Z,31.09
2022-08-22T15:28:05.137Z,30.56
2022-08-22T15:31:06.463Z,30.74
2022-08-22T15:33:39.109Z,30.34
2022-08-22T15:36:15.778Z,30.04
2022-08-22T15:38:48.323Z,30.12
2022-08-22T15:41:36.784Z,30.08
2022-08-22T15:44:09.407Z,30.00
2022-08-22T15:46:45.947Z,29.89
2022-08-22T15:49:25.985Z,29.28
2022-08-22T15:51:56.573Z,29.28
2022-08-22T15:54:27.715Z,29.06
2022-08-22T15:57:15.240Z,29.08
2022-08-22T15:59:54.736Z,28.92
2022-08-22T16:02:27.150Z,28.83
2022-08-22T16:05:06.197Z,28.62
2022-08-22T16:07:38.882Z,28.36
2022-08-22T16:10:13.345Z,28.13
2022-08-22T16:13:38.019Z,27.73
2022-08-22T16:16:10.590Z,27.42
2022-08-22T16:19:17.217Z,27.09
2022-08-22T16:22:07.433Z,27.08
2022-08-22T16:24:57.864Z,26.99
2022-08-22T16:27:27.156Z,26.54
2022-08-22T16:30:09.146Z,26.20
2022-08-22T16:32:37.300Z,25.83
2022-08-22T16:35:05.361Z,25.98
2022-08-22T16:37:47.753Z,25.63
2022-08-22T16:40:27.065Z,25.57
2022-08-22T16:43:14.457Z,25.41
2022-08-22T16:45:45.353Z,25.44
2022-08-22T16:48:33.784Z,25.14
2022-08-22T16:51:11.179Z,25.18
2022-08-22T16:54:07.205Z,25.08
2022-08-22T16:56:43.241Z,25.01
2022-08-22T16:59:38.193Z,24.94
2022-08-22T17:02:27.517Z,23.94
2022-08-22T17:05:09.741Z,23.69
2022-08-22T17:07:49.202Z,23.19
2022-08-22T17:10:25.880Z,22.86
2022-08-22T17:13:12.610Z,22.56
2022-08-22T17:15:51.448Z,22.67
2022-08-22T17:18:46.592Z,22.52
2022-08-22T17:21:19.214Z,22.27
2022-08-22T17:23:53.234Z,22.18
2022-08-22T17:26:27.996Z,22.09
2022-08-22T17:29:05.758Z,21.93
2022-08-22T17:31:47.263Z,22.00
2022-08-22T17:34:24.958Z,22.06
2022-08-22T17:37:02.089Z,22.23
2022-08-22T17:39:42.953Z,22.29
2022-08-22T17:42:23.691Z,22.34
2022-08-22T17:44:56.770Z,22.56
2022-08-22T17:47:31.633Z,22.79
2022-08-22T17:50:05.253Z,22.91
2022-08-22T17:52:37.904Z,23.03
2022-08-22T17:55:14.093Z,22.97
2022-08-22T17:57:48.755Z,23.08
2022-08-22T18:00:25.540Z,23.11
2022-08-22T18:02:57.005Z,23.18
2022-08-22T18:05:27.778Z,23.15
2022-08-22T18:08:02.876Z,22.97
2022-08-22T18:10:39.395Z,22.94
2022-08-22T18:13:11.464Z,23.01
2022-08-22T18:15:46.259Z,22.89
2022-08-22T18:18:20.528Z,22.80
2022-08-22T18:20:53.629Z,22.91
2022-08-22T18:23:39.334Z,22.79
2022-08-22T18:26:19.611Z,22.82
2022-08-22T18:28:53.322Z,22.76
2022-08-22T18:31:30.285Z,22.71
2022-08-22T18:34:02.001Z,22.65
2022-08-22T18:36:33.720Z,22.63
2022-08-22T18:39:06.594Z,22.42
2022-08-22T18:41:38.051Z,22.07
2022-08-22T18:44:10.982Z,22.13
2022-08-22T18:46:45.386Z,22.07
2022-08-22T18:49:29.650Z,22.07
2022-08-22T18:52:16.250Z,21.85
2022-08-22T18:54:55.848Z,21.83
2022-08-22T18:57:40.363Z,22.07
2022-08-22T19:00:14.650Z,21.96
2022-08-22T19:03:08.691Z,21.75
2022-08-22T19:06:08.853Z,21.59
2022-08-22T19:09:17.143Z,21.19
2022-08-22T19:11:52.934Z,20.82
2022-08-22T19:14:30.504Z,20.49
2022-08-22T19:17:16.136Z,20.62
2022-08-22T19:20:11.541Z,20.50
2022-08-22T19:22:39.491Z,20.52
2022-08-22T19:25:13.228Z,20.65
2022-08-22T19:27:44.511Z,20.62
2022-08-22T19:30:37.584Z,20.64
2022-08-22T19:33:07.478Z,20.57
2022-08-22T19:35:59.606Z,20.56
2022-08-22T19:38:51.631Z,20.42
2022-08-22T19:41:52.294Z,20.37
2022-08-22T19:44:34.883Z,20.29
2022-08-22T19:47:13.705Z,19.98
2022-08-22T19:49:44.362Z,19.64
2022-08-22T19:52:22.023Z,19.43
2022-08-22T19:54:53.969Z,19.17
2022-08-22T19:57:26.518Z,19.08
2022-08-22T20:00:02.051Z,19.10
2022-08-22T20:02:41.994Z,18.96
2022-08-22T20:05:33.085Z,18.92
2022-08-22T20:08:25.535Z,18.83
2022-08-22T20:11:01.598Z,19.06
2022-08-22T20:13:31.733Z,19.20
2022-08-22T20:16:18.347Z,19.13
2022-08-22T20:19:05.988Z,19.24
2022-08-22T20:21:53.075Z,19.24
2022-08-22T20:24:26.660Z,19.27
2022-08-22T20:27:15.497Z,19.13
2022-08-22T20:29:49.002Z,19.18
2022-08-22T20:32:19.741Z,19.16
2022-08-22T20:34:47.807Z,19.18
2022-08-22T20:37:35.566Z,19.17
2022-08-22T20:40:53.370Z,19.13
2022-08-22T20:43:10.409Z,19.14
2022-08-22T20:45:42.371Z,19.07
2022-08-22T20:48:11.319Z,19.04
2022-08-22T20:50:38.931Z,19.02
2022-08-22T20:53:09.821Z,19.04
2022-08-22T20:55:39.315Z,18.83
2022-08-22T20:58:21.732Z,18.78
2022-08-22T21:00:52.351Z,18.79
2022-08-22T21:03:29.134Z,18.78
2022-08-22T21:05:56.834Z,18.63
2022-08-22T21:08:26.650Z,18.65
2022-08-22T21:11:18.665Z,18.52
2022-08-22T21:13:46.981Z,18.48
2022-08-22T21:16:18.186Z,18.42
2022-08-22T21:18:47.659Z,18.50
2022-08-22T21:21:22.153Z,18.38
2022-08-22T21:23:51.346Z,18.33
2022-08-22T21:26:25.066Z,18.38
2022-08-22T21:28:59.818Z,18.40
2022-08-22T21:31:31.131Z,18.42
2022-08-22T21:33:59.507Z,18.40
2022-08-22T21:36:30.018Z,18.48
2022-08-22T21:39:00.761Z,18.52
2022-08-22T21:41:35.574Z,18.46
2022-08-22T21:44:26.377Z,18.39
2022-08-22T21:46:54.800Z,18.48
2022-08-22T21:49:24.107Z,18.47
2022-08-22T21:51:52.369Z,18.34
2022-08-22T21:54:39.488Z,18.20
2022-08-22T21:57:33.725Z,18.19
2022-08-22T22:00:01.565Z,18.25
2022-08-22T22:02:36.417Z,18.29
2022-08-22T22:05:08.853Z,18.45
2022-08-22T22:07:38.773Z,18.58
2022-08-22T22:10:08.342Z,18.71
2022-08-22T22:12:40.037Z,18.75
2022-08-22T22:15:08.621Z,18.86
2022-08-22T22:17:36.248Z,18.98
2022-08-22T22:20:04.676Z,19.12
2022-08-22T22:22:32.238Z,19.21
2022-08-22T22:25:02.046Z,19.32
2022-08-22T22:27:29.847Z,19.44
2022-08-22T22:29:59.122Z,19.56
2022-08-22T22:32:26.950Z,19.56
2022-08-22T22:34:55.098Z,19.53
2022-08-22T22:37:22.670Z,19.61
2022-08-22T22:39:50.340Z,19.56
2022-08-22T22:42:17.973Z,19.58
2022-08-22T22:44:47.503Z,19.71
2022-08-22T22:47:16.564Z,19.65
2022-08-22T22:49:44.919Z,19.83
2022-08-22T22:52:12.523Z,19.71
2022-08-22T22:54:41.188Z,19.77
2022-08-22T22:57:12.398Z,19.87
2022-08-22T22:59:40.980Z,19.90
2022-08-22T23:02:10.493Z,19.92
2022-08-22T23:04:41.738Z,20.00
2022-08-22T23:07:09.877Z,20.06
2022-08-22T23:09:44.998Z,20.09
2022-08-22T23:12:13.755Z,20.29
2022-08-22T23:14:41.521Z,20.29
2022-08-22T23:17:09.197Z,20.37
2022-08-22T23:19:38.693Z,20.43
2022-08-22T23:22:08.473Z,20.44
2022-08-22T23:24:37.320Z,20.44
2022-08-22T23:27:05.844Z,20.49
2022-08-22T23:29:33.448Z,20.55
2022-08-22T23:32:03.358Z,20.57
2022-08-22T23:34:33.017Z,20.63
2022-08-22T23:37:02.114Z,20.65
2022-08-22T23:39:36.194Z,20.68
2022-08-22T23:42:03.907Z,20.67
2022-08-22T23:44:33.229Z,20.73
2022-08-22T23:47:01.329Z,20.82
2022-08-22T23:49:29.834Z,20.78
2022-08-22T23:51:58.201Z,20.85
2022-08-22T23:54:26.474Z,20.88
2022-08-22T23:56:57.585Z,21.00
2022-08-22T23:59:30.519Z,21.02
